Time;durP1;ratioP1;P1;durP2;ratioP2;P2;SDS_P1;SDS_P2;PMS_P1;PMS_P2;Temp;Humidity;BMP_temperature;BMP_pressure;BME280_temperature;BME280_humidity;BME280_pressure;Samples;Min_cycle;Max_cycle;Signal;HPM_P1;HPM_P2
2022/07/11 00:02:19;;;;;;;3.53;1.90;;;23.00;48.40;;;;;;5052921;28;20054;-83
2022/07/11 00:04:48;;;;;;;2.80;1.60;;;23.00;48.50;;;;;;5052688;28;20063;-88
2022/07/11 00:07:15;;;;;;;3.08;1.50;;;23.00;48.50;;;;;;5053904;28;20368;-78
2022/07/11 00:09:41;;;;;;;3.10;1.80;;;23.10;48.60;;;;;;5036587;28;20065;-88
2022/07/11 00:12:11;;;;;;;3.90;1.80;;;23.20;48.70;;;;;;5039726;28;20383;-82
2022/07/11 00:14:39;;;;;;;3.10;1.60;;;23.20;48.50;;;;;;5052867;28;20029;-77
2022/07/11 00:17:07;;;;;;;3.78;1.70;;;23.10;48.70;;;;;;5053334;28;20040;-79
2022/07/11 00:19:33;;;;;;;3.03;1.52;;;23.00;48.80;;;;;;5053540;28;20032;-86
2022/07/11 00:21:58;;;;;;;3.03;1.63;;;23.00;48.80;;;;;;5051181;28;20025;-85
2022/07/11 00:24:24;;;;;;;3.70;1.60;;;23.10;48.80;;;;;;5051951;28;20020;-80
2022/07/11 00:26:51;;;;;;;3.20;1.50;;;23.10;49.00;;;;;;5052020;28;20029;-79
2022/07/11 00:29:17;;;;;;;2.78;1.52;;;23.10;49.30;;;;;;5041392;28;20045;-76
2022/07/11 00:31:43;;;;;;;3.15;1.73;;;23.00;49.10;;;;;;5033411;28;20033;-80
2022/07/11 00:34:09;;;;;;;3.83;1.70;;;23.10;49.20;;;;;;5033681;28;20029;-83
2022/07/11 00:36:35;;;;;;;4.40;1.70;;;23.20;49.10;;;;;;5032260;28;20028;-90
2022/07/11 00:39:00;;;;;;;3.90;1.50;;;23.20;49.20;;;;;;5038320;28;20053;-82
2022/07/11 00:41:26;;;;;;;3.65;1.60;;;23.10;49.00;;;;;;5053322;28;20456;-78
2022/07/11 00:43:55;;;;;;;4.30;1.55;;;23.00;49.40;;;;;;5053224;28;20025;-85
2022/07/11 00:46:22;;;;;;;3.00;1.77;;;23.10;49.20;;;;;;5039549;28;20029;-82
2022/07/11 00:48:48;;;;;;;2.90;1.60;;;23.20;49.00;;;;;;5031753;28;20040;-80
2022/07/11 00:51:15;;;;;;;3.88;1.52;;;23.10;49.20;;;;;;5042095;28;20017;-81
2022/07/11 00:53:41;;;;;;;4.20;1.80;;;22.90;49.50;;;;;;5033207;28;20040;-82
2022/07/11 00:56:09;;;;;;;2.88;1.60;;;22.80;49.50;;;;;;5033308;28;20072;-81
2022/07/11 00:58:35;;;;;;;4.88;2.10;;;22.90;49.30;;;;;;5047275;28;20033;-79
2022/07/11 01:01:02;;;;;;;3.88;1.95;;;23.00;49.20;;;;;;5039059;28;20025;-80
2022/07/11 01:03:28;;;;;;;4.93;1.80;;;22.90;49.30;;;;;;5032995;28;20101;-89
2022/07/11 01:05:53;;;;;;;3.45;1.80;;;23.10;49.10;;;;;;5033022;28;20096;-84
2022/07/11 01:08:19;;;;;;;3.72;1.80;;;23.10;49.00;;;;;;5033099;28;20480;-82
2022/07/11 01:10:46;;;;;;;3.88;1.70;;;23.10;48.70;;;;;;5046425;28;20037;-79
2022/07/11 01:13:11;;;;;;;4.18;1.77;;;23.10;48.70;;;;;;5050490;28;20079;-90
2022/07/11 01:15:37;;;;;;;3.85;1.83;;;23.00;48.90;;;;;;5032908;28;20412;-82
2022/07/11 01:18:03;;;;;;;4.80;1.80;;;23.00;48.90;;;;;;5031725;28;20026;-79
2022/07/11 01:20:29;;;;;;;3.95;1.73;;;23.00;48.80;;;;;;5031967;28;20416;-80
2022/07/11 01:23:05;;;;;;;4.07;1.75;;;22.80;48.90;;;;;;5050027;28;20033;-81
2022/07/11 01:25:31;;;;;;;4.50;1.83;;;22.90;49.20;;;;;;5051794;28;20017;-89
2022/07/11 01:28:02;;;;;;;5.22;1.88;;;22.90;49.40;;;;;;5052660;28;20063;-78
2022/07/11 01:30:29;;;;;;;3.17;1.60;;;23.20;48.80;;;;;;5051684;28;20033;-80
2022/07/11 01:32:55;;;;;;;4.13;1.83;;;23.00;49.00;;;;;;5051128;28;20031;-79
2022/07/11 01:35:22;;;;;;;4.15;1.88;;;23.00;49.30;;;;;;5052104;28;20127;-81
2022/07/11 01:37:48;;;;;;;3.13;1.70;;;22.90;49.20;;;;;;5055510;28;20033;-84
2022/07/11 01:40:14;;;;;;;4.68;1.90;;;22.80;49.30;;;;;;5047926;28;20029;-81
2022/07/11 01:42:40;;;;;;;4.30;1.73;;;22.90;49.20;;;;;;5036110;28;20025;-81
2022/07/11 01:45:07;;;;;;;3.53;1.67;;;22.90;49.10;;;;;;5036321;28;20064;-83
2022/07/11 01:47:32;;;;;;;2.90;1.73;;;23.00;49.20;;;;;;5036353;28;20106;-84
2022/07/11 01:49:58;;;;;;;4.05;2.08;;;23.00;49.00;;;;;;5038306;28;20634;-79
2022/07/11 01:52:24;;;;;;;3.00;1.80;;;22.80;49.10;;;;;;5054878;28;20527;-86
2022/07/11 01:54:49;;;;;;;4.85;2.00;;;22.80;49.20;;;;;;5045045;28;20064;-83
2022/07/11 01:57:15;;;;;;;4.35;1.70;;;22.80;49.40;;;;;;5034692;28;20068;-80
2022/07/11 01:59:41;;;;;;;3.10;1.80;;;22.60;49.50;;;;;;5034855;28;20036;-80
2022/07/11 02:02:08;;;;;;;4.00;1.85;;;22.60;49.70;;;;;;5039234;28;20017;-84
2022/07/11 02:04:33;;;;;;;3.67;1.70;;;22.80;49.60;;;;;;5056064;28;20116;-85
2022/07/11 02:06:59;;;;;;;3.50;1.77;;;22.70;49.70;;;;;;5056093;28;20100;-90
2022/07/11 02:09:25;;;;;;;4.25;2.00;;;22.80;49.70;;;;;;5052727;28;20033;-84
2022/07/11 02:11:51;;;;;;;3.38;1.80;;;22.80;49.70;;;;;;5051682;28;20436;-83
2022/07/11 02:14:16;;;;;;;3.97;1.73;;;22.80;49.70;;;;;;5035942;28;20029;-82
2022/07/11 02:16:42;;;;;;;5.65;1.85;;;22.80;49.60;;;;;;5035911;28;20549;-83
2022/07/11 02:19:10;;;;;;;3.47;1.77;;;22.90;49.70;;;;;;5034159;28;20018;-84
2022/07/11 02:21:36;;;;;;;4.78;1.90;;;22.90;49.70;;;;;;5035808;28;20029;-84
2022/07/11 02:24:03;;;;;;;3.25;1.80;;;22.70;50.00;;;;;;5035932;28;20464;-82
2022/07/11 02:26:29;;;;;;;3.67;1.80;;;22.50;50.30;;;;;;5034305;28;20022;-83
2022/07/11 02:28:55;;;;;;;5.50;2.33;;;22.30;50.40;;;;;;5036392;28;20053;-82
2022/07/11 02:31:21;;;;;;;3.45;1.90;;;22.10;50.90;;;;;;5035627;28;20022;-86
2022/07/11 02:33:47;;;;;;;3.35;1.73;;;21.90;51.20;;;;;;5035778;28;20049;-82
2022/07/11 02:36:13;;;;;;;3.92;1.90;;;22.00;51.60;;;;;;5035269;28;20097;-84
2022/07/11 02:38:39;;;;;;;4.80;1.98;;;22.10;51.20;;;;;;5034512;28;20056;-80
2022/07/11 02:41:05;;;;;;;5.07;1.80;;;22.30;50.90;;;;;;5034399;28;20065;-82
2022/07/11 02:43:30;;;;;;;4.07;1.90;;;22.50;50.40;;;;;;5033976;28;20049;-86
2022/07/11 02:45:56;;;;;;;4.88;1.92;;;22.70;49.90;;;;;;5033861;28;20084;-81
2022/07/11 02:48:22;;;;;;;3.35;1.73;;;22.80;49.90;;;;;;5035194;28;20037;-83
2022/07/11 02:50:48;;;;;;;3.45;1.90;;;22.90;49.70;;;;;;5034086;28;20032;-82
2022/07/11 02:53:14;;;;;;;3.05;1.63;;;22.80;49.80;;;;;;5034437;28;20030;-83
2022/07/11 02:55:40;;;;;;;3.75;1.80;;;22.70;49.90;;;;;;5049910;28;20112;-88
2022/07/11 02:58:06;;;;;;;4.25;1.88;;;22.60;50.00;;;;;;5054609;28;20108;-85
2022/07/11 03:00:32;;;;;;;4.20;1.90;;;22.40;50.70;;;;;;5054619;28;20523;-82
2022/07/11 03:02:58;;;;;;;4.05;1.77;;;22.30;50.50;;;;;;5044754;28;20021;-86
2022/07/11 03:05:24;;;;;;;4.28;1.70;;;22.50;50.30;;;;;;5033907;28;20036;-85
2022/07/11 03:07:49;;;;;;;6.45;1.90;;;22.30;50.30;;;;;;5034969;28;20026;-86
2022/07/11 03:10:15;;;;;;;4.22;2.00;;;22.40;50.60;;;;;;5033593;28;20026;-80
2022/07/11 03:12:45;;;;;;;6.85;1.98;;;22.40;50.50;;;;;;5039286;28;20037;-79
2022/07/11 03:15:10;;;;;;;4.25;1.85;;;22.30;50.70;;;;;;5054368;28;20036;-77
2022/07/11 03:17:37;;;;;;;4.28;1.73;;;22.30;50.70;;;;;;5053525;28;20021;-87
2022/07/11 03:20:05;;;;;;;6.13;2.08;;;22.30;50.80;;;;;;5054441;28;20029;-83
2022/07/11 03:22:31;;;;;;;3.80;1.83;;;22.20;51.10;;;;;;5053301;28;20025;-81
2022/07/11 03:24:57;;;;;;;5.68;2.20;;;22.50;50.70;;;;;;5053354;28;20048;-84
2022/07/11 03:27:24;;;;;;;3.70;1.70;;;22.60;50.80;;;;;;5053265;28;20028;-86
2022/07/11 03:29:50;;;;;;;4.05;1.80;;;22.40;50.60;;;;;;5053133;28;20060;-85
2022/07/11 03:32:16;;;;;;;5.72;1.90;;;22.40;51.10;;;;;;5049170;28;20026;-80
2022/07/11 03:35:40;;;;;;;5.35;1.92;;;22.30;51.60;;;;;;5034497;28;20102;-83
2022/07/11 03:37:27;;;;;;;4.07;1.88;;;22.20;51.30;;;;;;5034194;28;20128;-87
2022/07/11 03:39:53;;;;;;;5.90;1.90;;;22.40;51.40;;;;;;5033063;28;20119;-86
2022/07/11 03:42:18;;;;;;;6.63;2.47;;;22.50;51.10;;;;;;5033380;28;20029;-81
2022/07/11 03:44:44;;;;;;;3.70;1.83;;;22.60;51.20;;;;;;5034233;28;20084;-81
2022/07/11 03:47:10;;;;;;;5.38;2.30;;;22.50;50.70;;;;;;5033970;28;20032;-84
2022/07/11 03:49:35;;;;;;;3.50;1.90;;;22.30;51.30;;;;;;5032453;28;20427;-82
2022/07/11 03:52:01;;;;;;;5.43;2.38;;;22.40;51.00;;;;;;5033975;28;20108;-85
2022/07/11 03:54:27;;;;;;;5.32;2.13;;;22.50;51.30;;;;;;5032636;28;20032;-79
2022/07/11 03:56:52;;;;;;;4.05;1.67;;;22.60;51.10;;;;;;5034010;28;20029;-86
2022/07/11 03:59:18;;;;;;;5.35;2.00;;;22.50;51.00;;;;;;5043995;28;20029;-85
2022/07/11 04:01:43;;;;;;;5.80;2.00;;;22.70;51.10;;;;;;5052129;28;20036;-80
2022/07/11 04:04:09;;;;;;;3.50;1.80;;;22.70;51.00;;;;;;5052450;28;20025;-82
2022/07/11 04:06:35;;;;;;;4.40;1.90;;;22.50;51.40;;;;;;5049814;28;20056;-78
2022/07/11 04:09:01;;;;;;;6.32;2.00;;;22.50;51.40;;;;;;5048966;28;20064;-82
2022/07/11 04:11:26;;;;;;;6.05;2.00;;;22.60;51.50;;;;;;5048738;28;20460;-80
2022/07/11 04:13:52;;;;;;;3.15;1.77;;;23.00;50.90;;;;;;5032236;28;20036;-81
2022/07/11 04:16:19;;;;;;;4.93;2.00;;;23.30;50.40;;;;;;5033381;28;20060;-79
2022/07/11 04:18:44;;;;;;;5.95;1.95;;;23.20;50.30;;;;;;5050152;28;20390;-80
2022/07/11 04:21:11;;;;;;;5.38;1.88;;;23.20;50.00;;;;;;5052405;28;20412;-82
2022/07/11 04:23:36;;;;;;;5.25;1.80;;;23.10;50.50;;;;;;5052169;28;20025;-86
2022/07/11 04:26:02;;;;;;;4.70;1.90;;;23.20;50.30;;;;;;5052494;28;20028;-84
2022/07/11 04:28:28;;;;;;;4.35;2.03;;;23.30;50.30;;;;;;5032735;28;20046;-81
2022/07/11 04:30:54;;;;;;;5.10;1.80;;;23.20;50.60;;;;;;5033275;28;20140;-82
2022/07/11 04:33:20;;;;;;;3.70;1.67;;;23.50;49.90;;;;;;5032046;28;20021;-81
2022/07/11 04:35:45;;;;;;;5.13;1.80;;;23.80;49.50;;;;;;5038990;28;20033;-83
2022/07/11 04:38:11;;;;;;;3.80;2.00;;;24.00;49.30;;;;;;5053408;28;20037;-83
2022/07/11 04:40:37;;;;;;;3.72;1.95;;;23.80;49.90;;;;;;5052178;28;20025;-79
2022/07/11 04:43:02;;;;;;;5.45;1.90;;;23.50;49.80;;;;;;5053178;28;20025;-86
2022/07/11 04:45:28;;;;;;;4.63;1.90;;;23.50;50.10;;;;;;5049324;28;20029;-81
2022/07/11 04:47:54;;;;;;;3.95;1.90;;;23.50;50.20;;;;;;5052983;28;20030;-82
2022/07/11 04:50:19;;;;;;;3.47;1.70;;;23.90;49.80;;;;;;5052565;28;20033;-79
2022/07/11 04:52:45;;;;;;;3.58;1.80;;;24.10;49.50;;;;;;5052190;28;20029;-81
2022/07/11 04:55:11;;;;;;;5.32;2.08;;;24.30;49.20;;;;;;5052834;28;20032;-83
2022/07/11 04:59:24;;;;;;;5.82;1.83;;;24.60;47.80;;;;;;5011696;28;20966;-79
2022/07/11 05:01:50;;;;;;;5.57;2.05;;;24.60;48.70;;;;;;5027220;28;20030;-79
2022/07/11 05:04:16;;;;;;;5.05;2.38;;;24.60;48.20;;;;;;5009908;28;20022;-85
2022/07/11 05:06:42;;;;;;;5.43;2.00;;;24.70;48.80;;;;;;5026291;28;20086;-80
2022/07/11 05:09:08;;;;;;;3.92;2.00;;;24.80;48.30;;;;;;5009398;28;20034;-86
2022/07/11 05:11:34;;;;;;;7.60;2.10;;;24.80;48.00;;;;;;4999678;28;20158;-76
2022/07/11 05:14:00;;;;;;;7.95;2.10;;;24.70;48.30;;;;;;4991455;28;20031;-79
2022/07/11 05:16:26;;;;;;;5.82;2.25;;;24.90;49.10;;;;;;4991409;28;20034;-79
2022/07/11 05:18:52;;;;;;;4.85;1.90;;;24.90;48.30;;;;;;5009463;28;20038;-80
2022/07/11 05:21:23;;;;;;;7.22;2.35;;;24.90;48.60;;;;;;5009340;28;20492;-90
2022/07/11 05:23:49;;;;;;;4.15;1.80;;;24.80;48.80;;;;;;5009311;28;20022;-81
2022/07/11 05:26:16;;;;;;;4.72;1.77;;;24.80;48.80;;;;;;5009421;28;20026;-78
2022/07/11 05:28:42;;;;;;;5.20;2.00;;;24.90;48.80;;;;;;5009911;28;20030;-80
2022/07/11 05:31:07;;;;;;;4.25;2.03;;;24.90;48.70;;;;;;5009863;28;20026;-80
2022/07/11 05:33:34;;;;;;;6.15;1.67;;;25.10;48.60;;;;;;5009783;28;20092;-83
2022/07/11 05:36:03;;;;;;;4.47;1.80;;;25.40;48.30;;;;;;5009298;28;20023;-90
2022/07/11 05:38:29;;;;;;;2.95;1.80;;;25.60;47.50;;;;;;5010648;28;20045;-80
2022/07/11 05:40:54;;;;;;;3.58;1.83;;;25.70;47.40;;;;;;4996502;28;20019;-83
2022/07/11 05:43:20;;;;;;;6.53;2.40;;;25.60;47.50;;;;;;4990904;28;20058;-89
2022/07/11 05:45:46;;;;;;;4.78;1.83;;;25.30;47.60;;;;;;4991081;28;20421;-82
2022/07/11 05:48:11;;;;;;;4.07;2.00;;;25.40;48.10;;;;;;4989975;28;20038;-78
2022/07/11 05:50:37;;;;;;;4.80;1.90;;;25.40;47.60;;;;;;4990975;28;20031;-79
2022/07/11 05:53:03;;;;;;;5.22;1.75;;;25.20;47.90;;;;;;4997527;28;20085;-85
2022/07/11 05:55:30;;;;;;;4.95;2.08;;;25.30;49.10;;;;;;5009346;28;20046;-85
2022/07/11 05:57:55;;;;;;;6.35;1.90;;;25.50;47.40;;;;;;5008480;28;20045;-81
2022/07/11 06:00:22;;;;;;;5.43;2.20;;;25.60;47.90;;;;;;5007826;28;20022;-80
2022/07/11 06:02:51;;;;;;;5.57;1.92;;;25.40;47.80;;;;;;5010190;28;20108;-86
2022/07/11 06:05:17;;;;;;;5.80;1.98;;;25.30;48.10;;;;;;5010268;28;20101;-75
2022/07/11 06:10:27;;;;;;;4.03;2.00;;;25.80;48.20;;;;;;4988156;28;20084;-81
2022/07/11 06:12:53;;;;;;;5.18;2.10;;;26.10;47.60;;;;;;4982728;28;20039;-82
2022/07/11 06:15:19;;;;;;;4.20;1.75;;;25.90;47.90;;;;;;4986206;28;20023;-82
2022/07/11 06:17:45;;;;;;;5.47;2.20;;;25.80;47.80;;;;;;4986536;28;20435;-78
2022/07/11 06:20:11;;;;;;;3.75;1.80;;;26.00;48.30;;;;;;4975539;28;20034;-77
2022/07/11 06:22:38;;;;;;;5.80;2.30;;;25.80;48.50;;;;;;4990191;28;20026;-82
2022/07/11 06:25:04;;;;;;;5.20;2.13;;;25.70;48.70;;;;;;5001641;28;20030;-74
2022/07/11 06:27:30;;;;;;;6.05;2.00;;;25.50;48.80;;;;;;5013277;28;20030;-76
2022/07/11 06:29:56;;;;;;;5.10;2.05;;;25.50;48.80;;;;;;4996292;28;20041;-82
2022/07/11 06:32:23;;;;;;;6.60;1.92;;;25.30;48.60;;;;;;4991654;28;20018;-80
2022/07/11 06:34:49;;;;;;;4.60;2.00;;;25.20;49.50;;;;;;4989185;28;20034;-77
2022/07/11 06:37:15;;;;;;;3.30;1.70;;;25.30;49.40;;;;;;4985914;28;20445;-84
2022/07/11 06:39:40;;;;;;;4.05;1.90;;;25.20;48.80;;;;;;4994960;28;20393;-84
2022/07/11 06:42:06;;;;;;;3.30;1.92;;;25.30;49.60;;;;;;4978729;28;20023;-78
2022/07/11 06:44:32;;;;;;;7.53;2.30;;;25.40;49.40;;;;;;4985884;28;20065;-80
2022/07/11 06:47:00;;;;;;;4.20;1.80;;;25.50;49.30;;;;;;4994829;28;20474;-83
2022/07/11 06:49:26;;;;;;;4.20;2.17;;;25.40;49.30;;;;;;4994299;28;20039;-80
2022/07/11 06:51:52;;;;;;;5.80;2.40;;;25.40;49.10;;;;;;4994228;28;20031;-81
2022/07/11 06:54:17;;;;;;;4.38;2.10;;;25.40;49.00;;;;;;4988214;28;20035;-81
2022/07/11 06:56:43;;;;;;;6.13;2.13;;;25.40;49.10;;;;;;4996253;28;20050;-79
2022/07/11 06:59:09;;;;;;;5.95;2.28;;;25.50;49.20;;;;;;4992771;28;20061;-78
2022/07/11 07:01:34;;;;;;;4.65;2.15;;;25.60;49.40;;;;;;4977535;28;20029;-75
2022/07/11 07:04:00;;;;;;;5.78;2.20;;;25.60;49.30;;;;;;4986677;28;20461;-76
2022/07/11 07:06:26;;;;;;;3.22;1.75;;;25.80;49.30;;;;;;4979747;28;20478;-78
2022/07/11 07:08:52;;;;;;;4.53;2.03;;;25.70;48.60;;;;;;4974511;28;20097;-77
2022/07/11 07:11:18;;;;;;;8.43;2.70;;;25.80;48.40;;;;;;4986907;28;20034;-87
2022/07/11 07:13:45;;;;;;;8.27;2.30;;;25.60;48.70;;;;;;4992730;28;20033;-82
2022/07/11 07:16:11;;;;;;;6.85;2.30;;;25.60;48.80;;;;;;4997187;28;20035;-79
2022/07/11 07:18:42;;;;;;;5.95;1.83;;;25.50;49.00;;;;;;4987372;28;20094;-81
2022/07/11 07:21:08;;;;;;;4.15;1.90;;;25.60;48.60;;;;;;4989154;28;20022;-84
2022/07/11 07:23:34;;;;;;;4.50;2.05;;;25.90;48.90;;;;;;4987965;28;20022;-87
2022/07/11 07:25:59;;;;;;;5.70;2.10;;;26.10;48.50;;;;;;4986022;28;20026;-85
2022/07/11 07:28:28;;;;;;;5.43;2.42;;;26.40;48.60;;;;;;4992164;28;20033;-85
2022/07/11 07:30:54;;;;;;;5.53;2.00;;;26.90;47.70;;;;;;4992854;28;20474;-88
2022/07/11 07:33:20;;;;;;;5.30;2.13;;;26.80;48.10;;;;;;4991039;28;20060;-80
2022/07/11 07:35:45;;;;;;;4.45;1.75;;;27.10;47.60;;;;;;4979346;28;20029;-88
2022/07/11 07:38:12;;;;;;;4.30;1.70;;;27.30;47.30;;;;;;4972499;28;20043;-83
2022/07/11 07:40:38;;;;;;;5.15;4.38;;;27.50;46.80;;;;;;4988282;28;20022;-79
2022/07/11 07:43:04;;;;;;;5.10;1.98;;;27.40;46.70;;;;;;4992836;28;20025;-83
2022/07/11 07:45:30;;;;;;;6.20;2.30;;;27.50;46.20;;;;;;4992301;28;20101;-81
2022/07/11 07:47:55;;;;;;;4.07;1.90;;;27.20;46.40;;;;;;4991481;28;20026;-79
2022/07/11 07:50:22;;;;;;;4.00;2.10;;;26.50;46.30;;;;;;4974250;28;20027;-79
2022/07/11 07:52:48;;;;;;;5.75;2.00;;;25.70;47.60;;;;;;4982992;28;20049;-82
2022/07/11 07:55:14;;;;;;;5.47;1.98;;;25.70;47.90;;;;;;4988391;28;20050;-80
2022/07/11 07:57:40;;;;;;;6.60;2.10;;;25.10;48.90;;;;;;4977519;28;20093;-85
2022/07/11 08:02:50;;;;;;;6.43;2.20;;;26.00;48.90;;;;;;4994553;28;20092;-79
2022/07/11 08:05:17;;;;;;;6.45;2.25;;;26.40;47.70;;;;;;4993142;28;20030;-82
2022/07/11 08:07:43;;;;;;;4.85;2.10;;;26.70;47.00;;;;;;4994748;28;20029;-84
2022/07/11 08:10:47;;;;;;;8.10;2.33;;;27.00;46.40;;;;;;4998999;28;20034;-86
2022/07/11 08:13:12;;;;;;;8.65;2.58;;;27.30;47.20;;;;;;4996252;28;20374;-79
2022/07/11 08:15:49;;;;;;;5.55;1.85;;;27.70;46.20;;;;;;4992593;28;20382;-88
2022/07/11 08:18:16;;;;;;;7.22;2.38;;;27.90;46.20;;;;;;4987015;28;20038;-93
2022/07/11 08:20:42;;;;;;;5.10;1.85;;;28.20;46.20;;;;;;4992766;28;20046;-81
2022/07/11 08:23:08;;;;;;;4.95;1.80;;;28.40;44.80;;;;;;4986687;28;20389;-89
2022/07/11 08:25:33;;;;;;;7.00;2.00;;;28.40;44.30;;;;;;4981512;28;20077;-78
2022/07/11 08:27:59;;;;;;;4.88;2.10;;;28.60;45.10;;;;;;4974519;28;20493;-84
2022/07/11 08:30:25;;;;;;;4.22;1.83;;;28.50;45.00;;;;;;4991467;28;20033;-78
2022/07/11 08:32:51;;;;;;;10.32;2.45;;;27.80;44.60;;;;;;5000688;28;20034;-77
2022/07/11 08:35:17;;;;;;;7.32;1.90;;;27.40;45.90;;;;;;4993745;28;20022;-87
2022/07/11 08:37:43;;;;;;;6.22;2.17;;;27.70;45.90;;;;;;4993351;28;20219;-86
2022/07/11 08:40:09;;;;;;;4.82;2.13;;;27.90;45.00;;;;;;5005680;28;20121;-84
2022/07/11 08:42:44;;;;;;;4.63;2.15;;;27.90;44.30;;;;;;5004299;28;20022;-92
2022/07/11 08:45:16;;;;;;;4.30;1.65;;;27.80;44.90;;;;;;4994787;28;20019;-82
2022/07/11 08:47:43;;;;;;;6.45;2.40;;;28.20;44.30;;;;;;4994631;28;20026;-84
2022/07/11 08:50:10;;;;;;;4.82;2.45;;;28.30;43.80;;;;;;4994551;28;20105;-78
2022/07/11 08:52:37;;;;;;;4.88;1.83;;;28.30;42.00;;;;;;4990969;28;20096;-79
2022/07/11 08:55:06;;;;;;;6.75;2.00;;;28.20;41.90;;;;;;4985813;28;20041;-84
2022/07/11 08:57:49;;;;;;;3.75;1.85;;;28.10;41.60;;;;;;4973861;28;20055;-86
2022/07/11 09:00:16;;;;;;;8.48;2.30;;;28.20;41.10;;;;;;4956370;28;20035;-79
2022/07/11 09:02:43;;;;;;;5.35;1.90;;;28.20;41.50;;;;;;4972038;28;20069;-82
2022/07/11 09:05:10;;;;;;;8.10;2.20;;;28.30;41.50;;;;;;4972530;28;20030;-79
2022/07/11 09:07:43;;;;;;;8.32;2.92;;;28.50;40.70;;;;;;4971562;28;20489;-76
2022/07/11 09:10:09;;;;;;;6.00;2.08;;;28.40;41.30;;;;;;4955286;28;20069;-87
2022/07/11 09:12:34;;;;;;;9.20;1.95;;;28.20;42.20;;;;;;4955913;28;20126;-86
2022/07/11 09:15:00;;;;;;;7.20;1.80;;;28.00;41.60;;;;;;4955709;28;20023;-84
2022/07/11 09:17:28;;;;;;;7.15;1.88;;;27.90;41.20;;;;;;4956232;28;20395;-77
2022/07/11 09:19:54;;;;;;;5.95;2.05;;;28.10;41.70;;;;;;4955882;28;20031;-81
2022/07/11 09:28:04;;;;;;;5.82;2.20;;;28.10;41.30;;;;;;4972467;28;20023;-82
2022/07/11 09:30:42;;;;;;;6.60;2.00;;;27.90;40.50;;;;;;4973160;28;20023;-82
2022/07/11 09:33:12;;;;;;;5.25;1.90;;;28.00;41.00;;;;;;4973107;28;20089;-81
2022/07/11 09:35:40;;;;;;;5.38;2.05;;;28.00;40.90;;;;;;4972671;28;20122;-81
2022/07/11 09:38:09;;;;;;;5.53;2.15;;;28.20;40.60;;;;;;4972473;28;20047;-80
2022/07/11 09:40:35;;;;;;;4.88;1.67;;;28.30;40.10;;;;;;4974157;28;20110;-81
2022/07/11 09:43:03;;;;;;;6.30;1.75;;;28.70;41.70;;;;;;4972360;28;20031;-84
2022/07/11 09:45:33;;;;;;;3.67;1.70;;;29.10;41.70;;;;;;4976303;28;20026;-78
2022/07/11 09:48:00;;;;;;;;;;;29.20;41.40;;;;;;4977328;28;20034;-76
2022/07/11 09:50:28;;;;;;;6.07;2.05;;;29.70;42.50;;;;;;4977370;28;20284;-79
2022/07/11 09:53:08;;;;;;;5.53;1.90;;;30.30;42.30;;;;;;4976068;28;20082;-81
2022/07/11 09:55:39;;;;;;;6.72;2.00;;;30.30;40.20;;;;;;4976364;28;20547;-83
2022/07/11 09:58:06;;;;;;;8.80;2.30;;;30.20;39.80;;;;;;4976077;28;20129;-78
2022/07/11 10:00:33;;;;;;;15.30;2.80;;;29.80;39.60;;;;;;4977334;28;20027;-83
2022/07/11 10:03:00;;;;;;;5.13;1.60;;;29.20;39.90;;;;;;4977489;28;20035;-78
2022/07/11 10:05:27;;;;;;;8.40;2.05;;;28.60;39.80;;;;;;4975900;28;20026;-84
2022/07/11 10:07:53;;;;;;;4.85;1.70;;;28.00;40.60;;;;;;4977569;28;20410;-80
2022/07/11 10:10:18;;;;;;;5.90;2.08;;;27.40;40.80;;;;;;4976053;28;20041;-79
2022/07/11 10:12:46;;;;;;;5.90;1.73;;;27.30;40.90;;;;;;4975931;28;20408;-79
2022/07/11 10:15:15;;;;;;;5.75;1.80;;;27.60;41.40;;;;;;4977447;28;20343;-79
2022/07/11 10:18:03;;;;;;;5.57;1.80;;;27.90;41.20;;;;;;4976308;28;20046;-82
2022/07/11 10:20:44;;;;;;;5.18;1.50;;;28.30;41.00;;;;;;4975852;28;20023;-87
2022/07/11 10:23:34;;;;;;;4.05;1.70;;;28.50;40.80;;;;;;4977667;28;20055;-90
2022/07/11 10:26:18;;;;;;;4.88;1.70;;;28.70;40.80;;;;;;4976794;28;20113;-77
2022/07/11 10:28:52;;;;;;;5.28;1.70;;;28.90;39.10;;;;;;4977470;28;20114;-91
2022/07/11 10:31:23;;;;;;;9.23;2.05;;;29.30;40.60;;;;;;4976086;28;20085;-85
2022/07/11 10:34:18;;;;;;;6.82;1.88;;;29.30;40.50;;;;;;4977089;28;20034;-87
2022/07/11 10:36:44;;;;;;;5.53;1.90;;;28.90;40.10;;;;;;4975492;28;20031;-80
2022/07/11 10:39:21;;;;;;;6.35;1.80;;;28.30;38.50;;;;;;4976352;28;20097;-80
2022/07/11 10:41:47;;;;;;;6.07;2.17;;;27.90;40.00;;;;;;4975451;28;20114;-78
2022/07/11 10:44:13;;;;;;;6.78;1.70;;;27.90;39.30;;;;;;4975445;28;20038;-77
2022/07/11 10:46:39;;;;;;;5.75;1.67;;;27.60;39.30;;;;;;4975550;28;20021;-83
2022/07/11 10:49:14;;;;;;;6.78;1.80;;;27.20;39.90;;;;;;4975340;28;20027;-80
2022/07/11 10:51:49;;;;;;;9.75;1.80;;;27.50;40.60;;;;;;4975168;28;20026;-81
2022/07/11 10:54:42;;;;;;;4.50;1.80;;;27.90;39.10;;;;;;4976852;28;20485;-80
2022/07/11 10:57:17;;;;;;;4.90;1.92;;;28.10;38.60;;;;;;4975400;28;20045;-84
2022/07/11 11:00:08;;;;;;;9.93;1.90;;;28.50;40.20;;;;;;4974994;28;20133;-84
2022/07/11 11:03:05;;;;;;;5.78;1.77;;;28.90;39.50;;;;;;4976004;28;20030;-80
2022/07/11 11:05:54;;;;;;;3.47;1.40;;;28.60;38.30;;;;;;4974569;28;20129;-79
2022/07/11 11:08:40;;;;;;;8.05;1.65;;;28.70;38.50;;;;;;4976268;28;20120;-80
2022/07/11 11:11:24;;;;;;;4.50;1.85;;;28.60;37.90;;;;;;4976176;28;20106;-80
2022/07/11 11:14:15;;;;;;;5.63;1.90;;;28.60;38.70;;;;;;4974498;28;20090;-79
2022/07/11 11:16:40;;;;;;;;;;;28.20;38.10;;;;;;4975331;28;20027;-82
2022/07/11 11:19:06;;;;;;;6.00;2.03;;;27.90;38.50;;;;;;4975945;28;19921;-80
2022/07/11 11:21:32;;;;;;;7.10;1.98;;;27.50;39.00;;;;;;4974681;28;20109;-83
2022/07/11 11:24:02;;;;;;;5.60;1.60;;;27.40;39.30;;;;;;4976231;28;20390;-87
2022/07/11 11:26:51;;;;;;;6.35;1.70;;;27.40;38.80;;;;;;4974377;28;20023;-75
2022/07/11 11:29:25;;;;;;;5.68;1.70;;;27.40;39.40;;;;;;4974870;28;20117;-78
2022/07/11 11:31:54;;;;;;;4.90;1.60;;;27.70;39.80;;;;;;4974574;28;20427;-84
2022/07/11 11:34:21;;;;;;;10.77;1.98;;;27.80;39.70;;;;;;4974471;28;20027;-84
2022/07/11 11:36:58;;;;;;;5.45;1.73;;;27.90;39.80;;;;;;4976399;28;20382;-79
2022/07/11 11:39:27;;;;;;;8.23;1.77;;;27.80;40.30;;;;;;4977175;28;20130;-83
2022/07/11 11:41:52;;;;;;;5.93;1.90;;;27.90;40.70;;;;;;4976025;28;20022;-89
2022/07/11 11:44:18;;;;;;;10.13;2.42;;;28.00;41.40;;;;;;4975626;28;20150;-77
2022/07/11 11:46:44;;;;;;;5.22;1.90;;;28.30;41.20;;;;;;4975697;28;20051;-87
2022/07/11 11:49:10;;;;;;;5.70;1.92;;;28.40;41.20;;;;;;4974374;28;20493;-81
2022/07/11 11:51:37;;;;;;;5.97;2.15;;;28.50;39.60;;;;;;4975673;28;20034;-80
2022/07/11 11:54:03;;;;;;;3.97;2.00;;;28.30;40.30;;;;;;4973758;28;20023;-86
2022/07/11 11:56:51;;;;;;;6.10;1.90;;;28.10;39.80;;;;;;4975562;28;20037;-77
2022/07/11 11:59:17;;;;;;;5.10;1.70;;;28.20;40.30;;;;;;4973811;28;20577;-78
2022/07/11 12:01:46;;;;;;;6.03;2.10;;;28.60;40.80;;;;;;4975458;28;20030;-84
2022/07/11 12:04:14;;;;;;;10.70;2.03;;;29.10;40.00;;;;;;4975103;28;20078;-80
2022/07/11 12:06:46;;;;;;;6.95;2.03;;;29.10;39.50;;;;;;4974486;28;20023;-79
2022/07/11 12:09:22;;;;;;;5.10;1.90;;;28.90;38.80;;;;;;4975152;28;20027;-80
2022/07/11 12:14:34;;;;;;;6.65;1.85;;;28.40;38.50;;;;;;4974978;28;20410;-80
2022/07/11 12:16:59;;;;;;;4.57;2.00;;;28.10;39.20;;;;;;4973589;28;20023;-82
2022/07/11 12:19:32;;;;;;;7.85;1.60;;;28.10;40.30;;;;;;4975255;28;20035;-79
2022/07/11 12:21:59;;;;;;;5.55;1.70;;;28.00;39.50;;;;;;4974786;28;20030;-80
2022/07/11 12:24:28;;;;;;;6.80;2.00;;;28.10;40.20;;;;;;4975543;28;20023;-83
2022/07/11 12:26:55;;;;;;;6.28;2.08;;;28.70;41.10;;;;;;4975132;28;20019;-83
2022/07/11 12:29:27;;;;;;;13.55;1.63;;;29.30;40.90;;;;;;4974781;28;20035;-76
2022/07/11 12:31:54;;;;;;;5.40;1.80;;;29.30;38.00;;;;;;4973119;28;20018;-87
2022/07/11 12:34:21;;;;;;;8.32;1.85;;;29.10;38.40;;;;;;4973222;28;20038;-78
2022/07/11 12:36:48;;;;;;;4.78;1.77;;;28.80;37.20;;;;;;4973402;28;20018;-83
2022/07/11 12:39:25;;;;;;;6.93;1.70;;;28.50;36.70;;;;;;4974337;28;20153;-79
2022/07/11 12:41:52;;;;;;;5.25;1.73;;;28.40;38.30;;;;;;4974686;28;20054;-82
2022/07/11 12:47:07;;;;;;;6.60;2.00;;;28.70;38.60;;;;;;4974956;28;20041;-84
2022/07/11 12:49:33;;;;;;;3.75;1.67;;;28.80;38.50;;;;;;4973888;28;20027;-84
2022/07/11 12:52:00;;;;;;;5.45;1.70;;;28.80;38.00;;;;;;4973069;28;20390;-79
2022/07/11 12:54:33;;;;;;;3.95;1.63;;;29.30;38.70;;;;;;4975305;28;20030;-80
2022/07/11 12:57:04;;;;;;;4.53;1.60;;;29.10;37.80;;;;;;4973971;28;20042;-78
2022/07/11 12:59:31;;;;;;;3.65;1.58;;;28.90;38.40;;;;;;4973233;28;20066;-81
2022/07/11 13:02:06;;;;;;;7.78;1.98;;;29.10;38.90;;;;;;4973328;28;20058;-78
2022/07/11 13:04:40;;;;;;;4.88;1.58;;;28.80;38.10;;;;;;4974157;28;20031;-80
2022/07/11 13:10:21;;;;;;;8.52;2.08;;;28.40;38.60;;;;;;4974595;28;20038;-78
2022/07/11 13:12:49;;;;;;;4.40;1.70;;;28.20;38.90;;;;;;4972912;28;20022;-79
2022/07/11 13:15:17;;;;;;;4.65;1.60;;;28.20;39.30;;;;;;4972958;28;20019;-80